Time;durP1;ratioP1;P1;durP2;ratioP2;P2;SDS_P1;SDS_P2;PMS_P1;PMS_P2;Temp;Humidity;BMP_temperature;BMP_pressure;BME280_temperature;BME280_humidity;BME280_pressure;Samples;Min_cycle;Max_cycle;Signal;HPM_P1;HPM_P2
2023/09/23 00:00:55;;;;;;;15.23;5.88;;;;;;;20.42;100.00;97344.16;5151489;27;20030;-74
2023/09/23 00:03:24;;;;;;;15.23;5.75;;;;;;;20.41;100.00;97348.72;5152692;27;20068;-74
2023/09/23 00:05:51;;;;;;;18.20;6.13;;;;;;;20.46;100.00;97349.06;5134659;27;20026;-74
2023/09/23 00:08:19;;;;;;;22.38;6.30;;;;;;;20.50;100.00;97346.91;5151380;27;20023;-74
2023/09/23 00:10:46;;;;;;;17.80;6.30;;;;;;;20.51;100.00;97344.03;5151402;27;20034;-74
2023/09/23 00:13:11;;;;;;;20.42;5.97;;;;;;;20.51;100.00;97348.63;5151358;27;20022;-74
2023/09/23 00:15:41;;;;;;;16.90;5.80;;;;;;;20.47;100.00;97360.81;5152635;27;20036;-74
2023/09/23 00:18:17;;;;;;;18.52;6.18;;;;;;;20.44;100.00;97348.41;5149831;27;20122;-75
2023/09/23 00:24:35;;;;;;;20.30;6.00;;;;;;;20.05;100.00;97297.34;5132762;27;20027;-75
2023/09/23 00:27:01;;;;;;;19.70;5.85;;;;;;;20.20;100.00;97323.78;5147532;27;20477;-75
2023/09/23 00:29:29;;;;;;;34.30;6.60;;;;;;;20.34;100.00;97346.78;5133569;27;20095;-75
2023/09/23 00:31:54;;;;;;;15.00;6.25;;;;;;;20.28;100.00;97350.16;5152409;27;20029;-75
2023/09/23 00:34:21;;;;;;;22.85;7.00;;;;;;;20.28;100.00;97350.16;5152272;27;20026;-75
2023/09/23 00:36:46;;;;;;;21.98;6.25;;;;;;;20.19;100.00;97353.78;5151165;27;20141;-75
2023/09/23 00:39:13;;;;;;;27.63;6.40;;;;;;;20.07;100.00;97355.94;5152636;27;20480;-74
2023/09/23 00:41:41;;;;;;;24.52;6.47;;;;;;;20.00;100.00;97358.41;5151114;27;20027;-75
2023/09/23 00:44:07;;;;;;;24.65;6.57;;;;;;;19.89;100.00;97358.69;5151168;27;20056;-74
2023/09/23 00:46:35;;;;;;;22.27;6.38;;;;;;;19.78;100.00;97348.03;5152230;27;20040;-74
2023/09/23 00:49:01;;;;;;;20.42;6.07;;;;;;;19.78;100.00;97363.50;5150981;27;20019;-73
2023/09/23 00:51:28;;;;;;;18.70;6.70;;;;;;;19.76;100.00;97368.22;5150688;27;20026;-74
2023/09/23 00:53:54;;;;;;;20.80;6.78;;;;;;;19.80;100.00;97367.78;5150982;27;20025;-74
2023/09/23 00:56:23;;;;;;;24.48;8.65;;;;;;;19.72;100.00;97367.69;5152041;27;20478;-74
2023/09/23 00:58:50;;;;;;;29.58;9.25;;;;;;;19.57;100.00;97373.81;5150883;27;20038;-74
2023/09/23 01:01:16;;;;;;;26.00;10.30;;;;;;;19.42;100.00;97370.78;5133741;27;20019;-74
2023/09/23 01:03:42;;;;;;;30.25;9.88;;;;;;;19.39;100.00;97369.25;5150611;27;20050;-74
2023/09/23 01:06:18;;;;;;;24.13;9.85;;;;;;;19.36;100.00;97366.78;5151100;27;20470;-74
2023/09/23 01:08:45;;;;;;;31.83;9.77;;;;;;;19.34;100.00;97376.09;5151857;27;20022;-74
2023/09/23 01:11:12;;;;;;;21.40;8.63;;;;;;;19.28;100.00;97384.84;5150619;27;20019;-74
2023/09/23 01:13:37;;;;;;;24.55;8.88;;;;;;;19.28;100.00;97393.84;5150553;27;20023;-74
2023/09/23 01:16:12;;;;;;;21.17;8.02;;;;;;;19.30;100.00;97391.81;5133500;27;20018;-74
2023/09/23 01:18:38;;;;;;;19.15;7.78;;;;;;;19.33;100.00;97382.53;5150630;27;20094;-75
2023/09/23 01:21:06;;;;;;;22.08;6.90;;;;;;;19.34;100.00;97389.66;5150754;27;20477;-74
2023/09/23 01:23:34;;;;;;;13.82;7.00;;;;;;;19.32;100.00;97380.81;5150345;27;20033;-74
2023/09/23 01:25:59;;;;;;;21.35;7.75;;;;;;;19.38;100.00;97386.47;5150737;27;20170;-74
2023/09/23 01:28:25;;;;;;;16.27;6.93;;;;;;;19.33;100.00;97383.38;5151718;27;20038;-74
2023/09/23 01:30:51;;;;;;;20.00;7.60;;;;;;;19.26;100.00;97381.41;5150368;27;20068;-74
2023/09/23 01:33:17;;;;;;;18.13;6.82;;;;;;;19.29;100.00;97375.69;5151812;27;20027;-74
2023/09/23 01:35:45;;;;;;;20.65;7.78;;;;;;;19.25;100.00;97379.72;5139221;27;20035;-74
2023/09/23 01:38:11;;;;;;;22.73;7.60;;;;;;;19.21;100.00;97379.19;5142070;27;20027;-74
2023/09/23 01:40:41;;;;;;;21.83;7.72;;;;;;;19.25;100.00;97374.31;5116418;27;20410;-73
2023/09/23 01:43:07;;;;;;;16.67;7.15;;;;;;;19.22;100.00;97364.63;5148229;27;20045;-74
2023/09/23 01:45:33;;;;;;;27.23;7.38;;;;;;;19.19;100.00;97377.63;5154105;27;20026;-74
2023/09/23 01:47:58;;;;;;;17.00;7.18;;;;;;;19.19;100.00;97369.50;5155294;27;20022;-75
2023/09/23 01:50:25;;;;;;;23.00;7.72;;;;;;;19.22;100.00;97369.19;5154207;27;20023;-74
2023/09/23 01:52:51;;;;;;;18.35;7.35;;;;;;;19.28;100.00;97371.28;5153744;27;20022;-75
2023/09/23 01:55:17;;;;;;;19.50;7.72;;;;;;;19.16;100.00;97358.97;5154279;27;20015;-75
2023/09/23 01:57:43;;;;;;;20.80;7.15;;;;;;;19.22;100.00;97364.63;5154017;27;20475;-75
2023/09/23 02:00:13;;;;;;;17.15;7.22;;;;;;;19.22;100.00;97364.63;5154153;27;20101;-75
2023/09/23 02:02:39;;;;;;;21.30;7.82;;;;;;;19.24;100.00;97362.59;5155176;27;20551;-75
2023/09/23 02:05:06;;;;;;;18.92;7.15;;;;;;;19.22;100.00;97363.75;5136643;27;20026;-75
2023/09/23 02:07:31;;;;;;;18.60;6.53;;;;;;;19.27;100.00;97372.28;5153820;27;20033;-75
2023/09/23 02:09:57;;;;;;;23.20;7.65;;;;;;;19.24;100.00;97367.16;5154768;27;20379;-75
2023/09/23 02:12:23;;;;;;;21.23;7.85;;;;;;;19.20;100.00;97368.47;5155057;27;20033;-74
2023/09/23 02:14:49;;;;;;;22.98;8.43;;;;;;;19.28;100.00;97379.44;5154764;27;20023;-74
2023/09/23 02:17:15;;;;;;;25.77;9.45;;;;;;;18.99;100.00;97366.03;5153627;27;20168;-75
2023/09/23 02:19:42;;;;;;;24.05;8.77;;;;;;;18.93;100.00;97364.78;5153491;27;20023;-74
2023/09/23 02:22:10;;;;;;;25.30;8.55;;;;;;;18.90;100.00;97362.38;5154721;27;20474;-74
2023/09/23 02:24:36;;;;;;;28.80;7.88;;;;;;;18.94;100.00;97361.09;5154869;27;20023;-74
2023/09/23 02:27:05;;;;;;;23.30;7.97;;;;;;;18.94;100.00;97371.94;5154656;27;20037;-75
2023/09/23 02:29:35;;;;;;;20.25;8.02;;;;;;;18.92;100.00;97378.47;5153484;27;20429;-75
2023/09/23 02:32:01;;;;;;;18.35;7.22;;;;;;;18.90;100.00;97373.22;5135963;27;20362;-75
2023/09/23 02:34:28;;;;;;;24.45;8.73;;;;;;;18.88;100.00;97372.53;5154459;27;20113;-75
2023/09/23 02:36:54;;;;;;;20.42;7.00;;;;;;;19.00;100.00;97369.59;5153052;27;20118;-75
2023/09/23 02:39:20;;;;;;;31.10;7.38;;;;;;;18.93;100.00;97369.34;5154834;27;20045;-75
2023/09/23 02:41:49;;;;;;;24.33;7.75;;;;;;;18.91;100.00;97365.94;5153046;27;20026;-74
2023/09/23 02:44:19;;;;;;;17.60;7.38;;;;;;;18.84;100.00;97381.97;5153400;27;20519;-74
2023/09/23 02:46:48;;;;;;;21.98;7.57;;;;;;;18.78;100.00;97381.69;5136022;27;20061;-74
2023/09/23 02:49:14;;;;;;;21.35;7.47;;;;;;;18.73;100.00;97387.59;5151959;27;20027;-75
2023/09/23 02:51:42;;;;;;;19.20;8.43;;;;;;;18.73;100.00;97394.88;5154437;27;20058;-75
2023/09/23 02:54:08;;;;;;;26.20;9.25;;;;;;;18.69;100.00;97388.88;5154074;27;20027;-74
2023/09/23 02:56:35;;;;;;;25.05;8.80;;;;;;;18.69;100.00;97388.03;5135702;27;20130;-75
2023/09/23 02:59:11;;;;;;;26.08;8.38;;;;;;;18.77;100.00;97398.97;5152646;27;20418;-75
2023/09/23 03:01:45;;;;;;;20.70;8.18;;;;;;;18.68;100.00;97397.16;5146787;27;20072;-75
2023/09/23 03:04:17;;;;;;;26.98;8.73;;;;;;;18.62;100.00;97397.75;5133449;27;20486;-74
2023/09/23 03:06:49;;;;;;;28.38;10.15;;;;;;;18.56;100.00;97392.91;5147588;27;20019;-74
2023/09/23 03:09:15;;;;;;;;;;;;;;;18.56;100.00;97401.03;5153278;27;20421;-74
2023/09/23 03:11:48;;;;;;;21.33;7.45;;;;;;;18.54;100.00;97389.50;5135257;27;19921;-75
2023/09/23 03:14:18;;;;;;;22.38;7.78;;;;;;;18.59;100.00;97390.75;5152532;27;20029;-74
2023/09/23 03:16:48;;;;;;;19.70;7.00;;;;;;;18.57;100.00;97390.06;5152673;27;20047;-75
2023/09/23 03:19:15;;;;;;;15.77;7.47;;;;;;;18.54;100.00;97393.06;5135767;27;20066;-75
2023/09/23 03:21:41;;;;;;;19.63;6.72;;;;;;;18.46;100.00;97392.91;5152510;27;20134;-75
2023/09/23 03:24:06;;;;;;;23.80;7.97;;;;;;;18.41;100.00;97393.38;5152240;27;20061;-75
2023/09/23 03:26:32;;;;;;;27.88;8.05;;;;;;;18.40;100.00;97390.78;5153548;27;20478;-75
2023/09/23 03:28:57;;;;;;;17.20;7.13;;;;;;;18.36;100.00;97392.94;5135329;27;20027;-74
2023/09/23 03:31:23;;;;;;;22.83;7.75;;;;;;;18.29;100.00;97399.09;5153184;27;20026;-74
2023/09/23 03:33:48;;;;;;;21.85;7.15;;;;;;;18.23;100.00;97396.97;5152287;27;20083;-75
2023/09/23 03:36:15;;;;;;;23.98;7.85;;;;;;;18.14;100.00;97396.00;5152310;27;20117;-75
2023/09/23 03:38:42;;;;;;;18.30;7.63;;;;;;;18.08;100.00;97393.03;5151950;27;20504;-75
2023/09/23 03:41:08;;;;;;;23.88;8.68;;;;;;;18.07;100.00;97399.44;5134472;27;20414;-74
2023/09/23 03:43:34;;;;;;;16.58;7.70;;;;;;;18.01;100.00;97398.16;5134342;27;20497;-75
2023/09/23 03:45:59;;;;;;;33.15;10.95;;;;;;;18.08;100.00;97395.72;5138198;27;20031;-75
2023/09/23 03:48:28;;;;;;;30.50;9.07;;;;;;;18.09;100.00;97397.44;5132134;27;20072;-75
2023/09/23 03:50:54;;;;;;;20.38;8.57;;;;;;;18.06;100.00;97392.28;5146895;27;20121;-75
2023/09/23 03:53:21;;;;;;;24.15;9.00;;;;;;;18.08;100.00;97399.28;5151992;27;20065;-75
2023/09/23 03:55:49;;;;;;;26.05;7.88;;;;;;;18.07;100.00;97394.00;5134246;27;20027;-75
2023/09/23 03:58:17;;;;;;;26.15;8.85;;;;;;;18.03;100.00;97400.69;5134487;27;20179;-75
2023/09/23 04:00:43;;;;;;;21.80;8.30;;;;;;;17.99;100.00;97396.59;5152536;27;20035;-75
2023/09/23 04:03:10;;;;;;;20.52;9.13;;;;;;;17.97;100.00;97396.72;5151589;27;20033;-74
2023/09/23 04:05:36;;;;;;;30.80;9.55;;;;;;;17.97;100.00;97398.56;5133480;27;20042;-75
2023/09/23 04:08:02;;;;;;;62.63;21.48;;;;;;;17.94;100.00;97388.03;5151633;27;20034;-75
2023/09/23 04:10:28;;;;;;;33.97;11.20;;;;;;;17.98;100.00;97405.72;5151048;27;20042;-74
2023/09/23 04:12:57;;;;;;;20.35;8.13;;;;;;;17.96;100.00;97405.00;5151136;27;20079;-75
2023/09/23 04:15:24;;;;;;;25.55;10.15;;;;;;;17.98;100.00;97408.41;5151398;27;20049;-74
2023/09/23 04:17:50;;;;;;;20.65;8.88;;;;;;;18.08;100.00;97418.25;5151254;27;20517;-75
2023/09/23 04:20:15;;;;;;;19.95;9.63;;;;;;;18.12;100.00;97422.34;5151217;27;20027;-75
2023/09/23 04:22:42;;;;;;;19.05;7.70;;;;;;;18.13;100.00;97402.41;5152733;27;20030;-74
2023/09/23 04:25:08;;;;;;;21.73;8.77;;;;;;;18.14;100.00;97408.69;5151160;27;20558;-74
2023/09/23 04:27:36;;;;;;;30.08;8.07;;;;;;;18.24;100.00;97414.94;5151107;27;20497;-75
2023/09/23 04:30:12;;;;;;;23.25;7.30;;;;;;;18.24;100.00;97421.19;5150851;27;20030;-73
2023/09/23 04:32:41;;;;;;;20.98;7.72;;;;;;;18.34;100.00;97422.03;5134667;27;20464;-73
2023/09/23 04:35:08;;;;;;;23.90;8.05;;;;;;;18.37;100.00;97410.91;5151067;27;20107;-73
2023/09/23 04:37:37;;;;;;;19.25;8.82;;;;;;;18.42;100.00;97424.03;5151058;27;20079;-74
2023/09/23 04:40:09;;;;;;;25.20;8.43;;;;;;;18.52;100.00;97441.13;5133485;27;20019;-74
2023/09/23 04:42:35;;;;;;;;;;;;;;;18.56;100.00;97437.13;5151434;27;20046;-73
2023/09/23 04:45:01;;;;;;;18.52;7.15;;;;;;;18.60;100.00;97438.53;5133471;27;19911;-72
2023/09/23 04:47:32;;;;;;;15.18;8.07;;;;;;;18.60;100.00;97441.25;5145208;27;20027;-75
2023/09/23 04:50:01;;;;;;;20.65;7.38;;;;;;;18.70;100.00;97438.50;5137722;27;20027;-74
2023/09/23 04:52:27;;;;;;;23.85;7.32;;;;;;;18.81;100.00;97436.47;5147024;27;20027;-74
2023/09/23 04:54:57;;;;;;;22.17;8.73;;;;;;;18.95;100.00;97433.25;5147788;27;20062;-74
2023/09/23 04:57:22;;;;;;;29.50;17.25;;;;;;;19.11;100.00;97437.19;5148022;27;20041;-74
2023/09/23 04:59:48;;;;;;;36.47;15.88;;;;;;;19.22;100.00;97432.44;5147987;27;20023;-74
2023/09/23 05:02:15;;;;;;;56.72;22.80;;;;;;;19.44;100.00;97444.75;5147696;27;20446;-75
2023/09/23 05:04:41;;;;;;;32.17;13.57;;;;;;;19.60;100.00;97433.19;5147817;27;20438;-75
2023/09/23 05:07:06;;;;;;;28.95;10.75;;;;;;;19.79;100.00;97444.78;5147715;27;20038;-74
2023/09/23 05:09:32;;;;;;;32.35;9.57;;;;;;;19.98;100.00;97433.75;5147793;27;20018;-75
2023/09/23 05:11:58;;;;;;;28.40;9.73;;;;;;;20.34;100.00;97434.59;5144360;27;20171;-75
2023/09/23 05:14:26;;;;;;;23.15;10.18;;;;;;;20.49;100.00;97438.44;5132378;27;20057;-73
2023/09/23 05:16:52;;;;;;;28.70;9.50;;;;;;;20.89;100.00;97431.53;5131057;27;20047;-74
2023/09/23 05:19:21;;;;;;;28.17;9.13;;;;;;;21.14;100.00;97435.28;5151613;27;20030;-74
2023/09/23 05:21:47;;;;;;;31.48;8.73;;;;;;;21.88;100.00;97446.22;5135028;27;20114;-73
2023/09/23 05:24:13;;;;;;;27.55;9.43;;;;;;;22.42;100.00;97439.31;5146598;27;20125;-74
2023/09/23 05:26:40;;;;;;;62.15;31.13;;;;;;;23.04;100.00;97430.34;5151276;27;20035;-73
2023/09/23 05:29:06;;;;;;;28.20;9.20;;;;;;;23.63;100.00;97431.66;5150321;27;20030;-75
2023/09/23 05:31:31;;;;;;;26.58;9.13;;;;;;;24.23;100.00;97433.69;5151676;27;20091;-75
2023/09/23 05:33:57;;;;;;;38.20;8.55;;;;;;;24.74;100.00;97434.75;5141163;27;20503;-75
2023/09/23 05:36:23;;;;;;;27.58;8.52;;;;;;;25.28;100.00;97427.19;5133902;27;20027;-75
2023/09/23 05:38:48;;;;;;;22.63;7.22;;;;;;;25.45;100.00;97422.34;5153435;27;20022;-75
2023/09/23 05:41:14;;;;;;;22.23;6.85;;;;;;;25.75;100.00;97424.00;5154271;27;20113;-75
2023/09/23 05:43:39;;;;;;;24.50;6.28;;;;;;;26.26;100.00;97431.16;5154497;27;20039;-75
2023/09/23 05:46:06;;;;;;;57.78;25.45;;;;;;;26.52;100.00;97426.97;5146318;27;20035;-74
2023/09/23 05:48:34;;;;;;;22.85;7.28;;;;;;;26.77;100.00;97422.72;5133638;27;20060;-75
2023/09/23 05:51:04;;;;;;;19.63;7.38;;;;;;;27.37;100.00;97422.09;5150272;27;20152;-75
2023/09/23 05:53:33;;;;;;;18.75;6.80;;;;;;;27.93;100.00;97422.81;5146435;27;20019;-75
2023/09/23 05:56:00;;;;;;;21.77;6.65;;;;;;;28.45;100.00;97422.94;5116312;27;20023;-75
2023/09/23 05:58:26;;;;;;;28.75;7.32;;;;;;;28.85;96.16;97417.47;5153384;27;22074;-74
2023/09/23 06:00:52;;;;;;;36.10;8.93;;;;;;;29.11;95.11;97416.56;5153800;27;20375;-75
2023/09/23 06:03:18;;;;;;;33.90;9.82;;;;;;;29.88;88.69;97416.59;5155120;27;20450;-75
2023/09/23 06:05:46;;;;;;;32.75;8.15;;;;;;;30.07;84.95;97418.41;5153786;27;20030;-75
2023/09/23 06:08:15;;;;;;;21.52;7.72;;;;;;;30.42;82.47;97424.38;5153779;27;20026;-76
2023/09/23 06:10:41;;;;;;;43.58;14.10;;;;;;;30.88;79.87;97421.25;5153758;27;20113;-75
2023/09/23 06:13:07;;;;;;;43.08;10.40;;;;;;;30.97;76.56;97417.16;5153805;27;20046;-76
2023/09/23 06:15:33;;;;;;;28.75;10.73;;;;;;;31.48;75.05;97420.44;5153393;27;20106;-75
2023/09/23 06:18:00;;;;;;;39.75;13.95;;;;;;;31.94;69.80;97416.28;5153591;27;20442;-75
2023/09/23 06:20:25;;;;;;;57.88;16.52;;;;;;;32.20;68.09;97419.59;5153599;27;20027;-76
2023/09/23 06:22:51;;;;;;;64.68;34.03;;;;;;;31.83;68.75;97430.94;5136272;27;20019;-75
2023/09/23 06:25:17;;;;;;;26.40;5.65;;;;;;;32.69;62.96;97412.06;5134981;27;20034;-75
2023/09/23 06:27:42;;;;;;;22.90;5.90;;;;;;;32.64;61.51;97418.31;5153416;27;20459;-75
2023/09/23 06:30:08;;;;;;;27.08;8.70;;;;;;;32.76;63.05;97421.13;5152968;27;20023;-76
2023/09/23 06:32:35;;;;;;;36.60;7.95;;;;;;;32.41;64.01;97432.06;5153120;27;20034;-76
2023/09/23 06:35:01;;;;;;;34.40;11.10;;;;;;;33.01;61.42;97423.69;5153274;27;20058;-75
2023/09/23 06:37:27;;;;;;;48.53;12.45;;;;;;;33.09;61.74;97426.13;5152401;27;20540;-75
2023/09/23 06:39:52;;;;;;;23.13;6.18;;;;;;;33.70;56.50;97422.84;5154368;27;20019;-75
2023/09/23 06:42:18;;;;;;;29.13;7.80;;;;;;;33.96;55.54;97416.75;5153139;27;20030;-76
2023/09/23 06:44:45;;;;;;;35.47;9.35;;;;;;;34.80;52.43;97421.47;5152759;27;20022;-76
2023/09/23 06:47:10;;;;;;;28.95;7.07;;;;;;;34.95;48.90;97420.06;5154360;27;20466;-75
2023/09/23 06:49:36;;;;;;;19.02;6.40;;;;;;;34.62;49.27;97413.38;5152906;27;20034;-75
2023/09/23 06:52:02;;;;;;;19.00;4.78;;;;;;;34.65;48.97;97421.19;5154631;27;20026;-75
2023/09/23 06:54:27;;;;;;;21.15;6.15;;;;;;;35.06;48.10;97416.34;5154523;27;20110;-75
2023/09/23 06:56:54;;;;;;;18.70;5.88;;;;;;;35.72;46.52;97416.28;5152836;27;20137;-74
2023/09/23 06:59:20;;;;;;;21.17;6.53;;;;;;;36.36;45.44;97416.53;5135616;27;20030;-75
2023/09/23 07:01:46;;;;;;;19.90;5.70;;;;;;;36.04;44.83;97413.63;5152816;27;20502;-75
2023/09/23 07:04:12;;;;;;;41.38;12.93;;;;;;;36.50;44.65;97422.53;5153891;27;20110;-75
2023/09/23 07:06:37;;;;;;;28.42;8.27;;;;;;;36.21;43.82;97414.41;5152409;27;20048;-75
2023/09/23 07:09:05;;;;;;;22.83;6.72;;;;;;;36.45;43.16;97406.59;5153546;27;20106;-75
2023/09/23 07:11:30;;;;;;;25.40;8.48;;;;;;;36.99;43.49;97412.19;5152590;27;20034;-75
2023/09/23 07:13:58;;;;;;;28.98;9.60;;;;;;;37.92;41.34;97403.91;5122509;27;20109;-75
2023/09/23 07:16:26;;;;;;;75.15;20.83;;;;;;;38.27;41.40;97411.56;5147756;27;20050;-75
2023/09/23 07:18:52;;;;;;;33.40;8.68;;;;;;;39.13;39.50;97411.78;5152175;27;20023;-76
2023/09/23 07:21:17;;;;;;;146.07;40.30;;;;;;;39.11;38.38;97408.41;5128573;27;20027;-76
2023/09/23 07:23:43;;;;;;;48.28;12.85;;;;;;;38.93;38.53;97409.81;5149839;27;20367;-76
2023/09/23 07:26:09;;;;;;;21.77;5.95;;;;;;;38.83;36.66;97407.00;5153250;27;20054;-76
2023/09/23 07:28:34;;;;;;;23.70;5.55;;;;;;;37.29;38.21;97409.63;5152144;27;20397;-74
2023/09/23 07:31:00;;;;;;;26.35;5.82;;;;;;;37.27;39.51;97418.28;5153149;27;20019;-76
2023/09/23 07:33:26;;;;;;;20.98;5.25;;;;;;;37.43;39.83;97403.31;5134996;27;20027;-76
2023/09/23 07:35:52;;;;;;;22.13;5.55;;;;;;;38.31;39.43;97418.31;5151684;27;20086;-76
2023/09/23 07:38:17;;;;;;;25.23;6.50;;;;;;;38.93;37.65;97408.97;5153081;27;20034;-75
2023/09/23 07:40:43;;;;;;;17.98;5.53;;;;;;;39.06;37.50;97402.81;5152379;27;20105;-75
2023/09/23 07:43:08;;;;;;;18.88;5.97;;;;;;;39.21;36.31;97400.00;5133132;27;20108;-75
2023/09/23 07:45:34;;;;;;;24.30;6.80;;;;;;;39.61;36.07;97401.09;5132921;27;20034;-75
2023/09/23 07:48:00;;;;;;;25.45;6.32;;;;;;;40.20;35.61;97396.44;5149996;27;20050;-76
2023/09/23 07:50:26;;;;;;;27.90;8.48;;;;;;;40.45;34.58;97398.28;5153289;27;20495;-76
2023/09/23 07:52:51;;;;;;;23.70;6.00;;;;;;;40.05;34.38;97390.88;5153053;27;20053;-76
2023/09/23 07:55:17;;;;;;;51.80;10.27;;;;;;;40.34;34.56;97394.66;5151880;27;20439;-75
2023/09/23 07:57:43;;;;;;;18.02;4.97;;;;;;;40.53;33.22;97395.72;5152942;27;20027;-75
2023/09/23 08:00:09;;;;;;;25.73;5.80;;;;;;;40.01;33.25;97382.19;5151529;27;20499;-76
2023/09/23 08:02:37;;;;;;;19.73;5.70;;;;;;;39.65;34.94;97391.84;5134514;27;20058;-77
2023/09/23 08:05:04;;;;;;;18.88;5.22;;;;;;;39.98;33.80;97381.94;5151648;27;20031;-75
2023/09/23 08:07:30;;;;;;;21.95;5.30;;;;;;;40.64;33.20;97390.84;5151731;27;20421;-76
2023/09/23 08:09:57;;;;;;;27.33;6.82;;;;;;;41.35;33.17;97388.34;5152542;27;20110;-76
2023/09/23 08:12:23;;;;;;;24.02;5.57;;;;;;;41.96;32.53;97385.72;5151466;27;20397;-76
2023/09/23 08:14:48;;;;;;;20.13;5.93;;;;;;;42.28;32.09;97373.81;5151672;27;20011;-76
2023/09/23 08:17:17;;;;;;;18.30;5.90;;;;;;;42.44;30.79;97380.06;5151499;27;20035;-76
2023/09/23 08:19:44;;;;;;;24.70;7.10;;;;;;;42.69;30.33;97376.91;5151479;27;20505;-75
2023/09/23 08:22:10;;;;;;;27.73;6.10;;;;;;;43.55;29.87;97373.50;5151072;27;20026;-76
2023/09/23 08:24:37;;;;;;;31.23;6.68;;;;;;;43.91;29.74;97368.00;5151185;27;20031;-76
2023/09/23 08:27:04;;;;;;;31.60;6.90;;;;;;;43.96;29.79;97373.56;5134006;27;20125;-76
2023/09/23 08:29:29;;;;;;;25.38;6.63;;;;;;;44.28;29.88;97381.06;5134216;27;20018;-76
2023/09/23 08:31:55;;;;;;;16.00;5.13;;;;;;;44.06;28.83;97373.31;5152369;27;20035;-76
2023/09/23 08:34:21;;;;;;;34.42;6.78;;;;;;;43.99;28.71;97360.81;5152251;27;20230;-76
2023/09/23 08:36:46;;;;;;;24.70;5.40;;;;;;;43.80;28.60;97363.72;5152329;27;20064;-76
2023/09/23 08:39:12;;;;;;;22.25;6.15;;;;;;;44.06;27.80;97362.03;5151888;27;20023;-77
2023/09/23 08:41:38;;;;;;;27.95;7.22;;;;;;;44.54;28.26;97362.44;5133728;27;20538;-77
2023/09/23 08:44:05;;;;;;;21.95;7.43;;;;;;;44.92;28.06;97362.13;5150971;27;20045;-76
2023/09/23 08:46:31;;;;;;;24.88;6.50;;;;;;;45.64;26.64;97357.94;5150491;27;20414;-76
2023/09/23 08:49:00;;;;;;;39.22;7.80;;;;;;;44.49;26.84;97353.19;5135903;27;20114;-76
2023/09/23 08:51:27;;;;;;;19.08;4.82;;;;;;;43.51;27.54;97349.03;5131333;27;20023;-76
2023/09/23 08:53:54;;;;;;;18.30;4.97;;;;;;;43.32;27.92;97339.81;5145771;27;20404;-76
2023/09/23 08:56:20;;;;;;;28.08;6.82;;;;;;;43.90;28.52;97337.31;5133381;27;20512;-76
2023/09/23 08:58:48;;;;;;;20.00;4.90;;;;;;;43.13;26.80;97331.44;5133558;27;20022;-77
2023/09/23 09:01:14;;;;;;;18.75;4.95;;;;;;;43.90;26.08;97328.84;5150603;27;20011;-77
2023/09/23 09:03:39;;;;;;;32.25;4.88;;;;;;;44.87;25.10;97331.97;5134812;27;20026;-77
2023/09/23 09:06:18;;;;;;;30.75;4.63;;;;;;;45.31;24.15;97327.50;5133662;27;20458;-71
2023/09/23 09:08:44;;;;;;;36.65;5.65;;;;;;;45.07;23.56;97320.16;5150910;27;20046;-72
2023/09/23 09:11:10;;;;;;;27.20;4.38;;;;;;;45.99;23.15;97318.50;5133122;27;20475;-72
2023/09/23 09:13:36;;;;;;;16.30;4.30;;;;;;;45.22;23.09;97314.13;5147250;27;20101;-70
2023/09/23 09:16:06;;;;;;;25.63;4.82;;;;;;;45.28;23.08;97315.66;5130178;27;20023;-70
2023/09/23 09:18:32;;;;;;;19.98;4.20;;;;;;;45.85;22.58;97309.28;5141407;27;20073;-70
2023/09/23 09:20:58;;;;;;;21.52;4.72;;;;;;;46.01;22.87;97302.84;5136304;27;20023;-71
2023/09/23 09:23:29;;;;;;;19.75;4.63;;;;;;;46.23;22.91;97305.59;5114135;27;20027;-70
2023/09/23 09:25:55;;;;;;;20.38;4.50;;;;;;;46.38;22.39;97306.25;5136310;27;20034;-71
2023/09/23 09:28:21;;;;;;;15.68;3.83;;;;;;;46.90;21.96;97307.97;5141635;27;20068;-70
2023/09/23 09:30:55;;;;;;;20.98;4.70;;;;;;;46.27;22.03;97306.56;5141917;27;20019;-71
2023/09/23 09:33:24;;;;;;;25.33;6.22;;;;;;;45.70;22.11;97296.44;5149329;27;20474;-70
2023/09/23 09:35:55;;;;;;;11.18;3.78;;;;;;;45.94;21.87;97298.81;5131163;27;20019;-71
2023/09/23 09:38:23;;;;;;;19.13;4.18;;;;;;;44.21;21.76;97290.34;5148058;27;20027;-70
2023/09/23 09:40:50;;;;;;;16.27;3.88;;;;;;;43.45;22.37;97282.66;5151539;27;20025;-71
2023/09/23 09:43:16;;;;;;;36.80;9.13;;;;;;;43.73;23.36;97289.94;5150071;27;20121;-70
2023/09/23 09:45:44;;;;;;;30.85;4.68;;;;;;;43.43;23.02;97284.94;5138276;27;20019;-71
2023/09/23 09:48:12;;;;;;;23.63;4.65;;;;;;;43.76;22.97;97268.75;5137310;27;20027;-71
2023/09/23 09:50:39;;;;;;;20.38;4.85;;;;;;;44.54;22.82;97291.00;5149825;27;20015;-71
2023/09/23 09:53:06;;;;;;;23.67;4.28;;;;;;;45.28;21.32;97264.78;5143033;27;20020;-70
2023/09/23 09:55:32;;;;;;;24.33;4.53;;;;;;;45.52;21.76;97274.88;5147938;27;20447;-71
2023/09/23 09:58:00;;;;;;;24.67;4.47;;;;;;;45.24;21.47;97257.25;5143893;27;20019;-71
2023/09/23 10:00:33;;;;;;;28.17;4.20;;;;;;;45.23;21.80;97270.56;5128170;27;20027;-71
2023/09/23 10:03:00;;;;;;;19.20;3.97;;;;;;;45.93;21.59;97266.88;5153700;27;20125;-71
2023/09/23 10:05:46;;;;;;;24.80;4.88;;;;;;;46.65;21.39;97269.13;5153582;27;20027;-70
2023/09/23 10:08:19;;;;;;;30.50;4.30;;;;;;;46.49;21.01;97267.97;5155002;27;20546;-69
2023/09/23 10:10:47;;;;;;;17.70;4.20;;;;;;;46.09;22.20;97267.25;5149938;27;20030;-71
2023/09/23 10:13:18;;;;;;;18.80;5.00;;;;;;;45.66;21.18;97250.13;5142922;27;20031;-71
2023/09/23 10:15:44;;;;;;;17.13;5.30;;;;;;;45.78;20.52;97241.88;5154484;27;20042;-71
2023/09/23 10:18:11;;;;;;;23.50;4.80;;;;;;;44.68;21.77;97238.97;5129408;27;20558;-71
2023/09/23 10:20:40;;;;;;;26.90;5.72;;;;;;;44.00;22.13;97233.53;5132779;27;20031;-70
2023/09/23 10:23:07;;;;;;;20.83;4.65;;;;;;;44.29;22.57;97236.00;5147075;27;20027;-71
2023/09/23 10:25:42;;;;;;;18.77;4.20;;;;;;;43.41;22.89;97228.06;5149816;27;20023;-70
2023/09/23 10:28:19;;;;;;;16.75;6.10;;;;;;;43.56;22.83;97228.56;5132712;27;20027;-70
2023/09/23 10:30:56;;;;;;;23.85;5.20;;;;;;;44.35;22.34;97231.88;5132315;27;20500;-72
2023/09/23 10:33:40;;;;;;;24.42;4.65;;;;;;;44.74;22.04;97234.00;5134108;27;20023;-71
2023/09/23 10:36:07;;;;;;;22.58;8.40;;;;;;;45.36;21.62;97225.59;5132881;27;20080;-71
2023/09/23 10:38:38;;;;;;;24.83;4.57;;;;;;;46.33;20.77;97217.47;5150545;27;20031;-70
2023/09/23 10:41:04;;;;;;;;;;;;;;;47.10;20.19;97227.09;5117169;27;20057;-71
2023/09/23 10:43:31;;;;;;;26.70;5.10;;;;;;;47.06;20.19;97217.59;5141065;27;20347;-71
2023/09/23 10:45:59;;;;;;;24.02;5.35;;;;;;;46.94;20.17;97209.78;5116201;27;20035;-71
2023/09/23 10:48:29;;;;;;;20.05;5.35;;;;;;;47.71;20.09;97211.50;5152834;27;20029;-70
2023/09/23 10:50:54;;;;;;;32.15;5.80;;;;;;;47.71;20.24;97218.00;5151594;27;20312;-72
2023/09/23 10:53:25;;;;;;;14.88;4.65;;;;;;;48.35;19.83;97215.75;5115009;27;20027;-71
2023/09/23 10:55:51;;;;;;;24.80;5.00;;;;;;;48.98;18.89;97202.28;5141640;27;20037;-71
2023/09/23 10:58:17;;;;;;;25.40;5.00;;;;;;;48.82;19.04;97202.13;5146013;27;20374;-70
2023/09/23 11:00:43;;;;;;;24.10;5.18;;;;;;;49.54;18.36;97194.91;5133898;27;20442;-71
2023/09/23 11:03:16;;;;;;;16.98;4.05;;;;;;;50.09;18.01;97187.78;5117099;27;20030;-71
2023/09/23 11:05:43;;;;;;;24.77;4.78;;;;;;;50.26;17.78;97188.31;5133449;27;20023;-70
2023/09/23 11:08:12;;;;;;;23.90;4.50;;;;;;;49.99;17.56;97174.06;5142604;27;20041;-70
2023/09/23 11:10:39;;;;;;;21.83;4.23;;;;;;;49.70;17.77;97184.50;5136899;27;20383;-69
2023/09/23 11:13:06;;;;;;;27.80;4.38;;;;;;;48.80;18.33;97183.75;5153169;27;20459;-70
2023/09/23 11:15:32;;;;;;;18.45;4.63;;;;;;;47.90;19.39;97174.19;5134926;27;20046;-70
2023/09/23 11:17:58;;;;;;;16.05;4.75;;;;;;;47.38;19.44;97170.78;5117514;27;20043;-71
2023/09/23 11:20:32;;;;;;;25.50;5.07;;;;;;;47.27;19.24;97167.50;5150943;27;20026;-71
2023/09/23 11:22:59;;;;;;;31.00;4.97;;;;;;;47.93;19.22;97157.31;5142031;27;20511;-70
2023/09/23 11:25:25;;;;;;;31.20;5.53;;;;;;;49.02;17.99;97151.25;5141772;27;20467;-70